Dan Fighter — OVUE2 — position and weather

sailwx.info

Track history (hours):
 
Tides and Currents Weather Stations Pressure Air Temp Water Temp Dewpoint Dewpoint Depression Visibility Wind Speed Wind Dir Waves Ship Positions

Dan Fighter

Last reported at 2017-Jan-24 20:33 UTC. Time now 2017-Jan-24 21:32 UTC.
Position N 51°25' E 004°02'.

Length 64 m; draft 3.1 m.

Type: Cargo ship. MMSI: 220386978.

Date/timePositionNaut miles runAvg speedWind from/ knotsBaromVisibWave heightAir tempDewpointWater temp
2017-Jan-24 20:33N 51°25' E 004°02'6 5.8
2017-Jan-24 19:33N 51°24' E 004°11'5 5.0
2017-Jan-24 18:34N 51°21' E 004°17'2 1.7
2017-Jan-24 17:33N 51°19' E 004°19'3 2.6
2017-Jan-24 16:33N 51°17' E 004°21'0 0.0
2017-Jan-24 15:33N 51°17' E 004°21'0 0.0
2017-Jan-24 14:33N 51°17' E 004°21'0 0.0
2017-Jan-24 13:33N 51°17' E 004°21'0 0.0
2017-Jan-24 12:33N 51°17' E 004°21'0 0.0
2017-Jan-24 11:33N 51°17' E 004°21'0 0.0
2017-Jan-24 10:33N 51°17' E 004°21'0 0.0
2017-Jan-24 09:33N 51°17' E 004°21'0 0.0
2017-Jan-24 08:33N 51°17' E 004°21'0 0.0
2017-Jan-24 07:33N 51°17' E 004°21'0 0.0
2017-Jan-24 06:33N 51°17' E 004°21'0 0.0
2017-Jan-24 05:33N 51°17' E 004°21'0 0.0
2017-Jan-24 04:33N 51°17' E 004°21'0 0.0
2017-Jan-24 03:33N 51°17' E 004°21'0 0.0
2017-Jan-24 02:33N 51°17' E 004°21'0 0.0
2017-Jan-24 01:33N 51°17' E 004°21'0 0.0
2017-Jan-24 00:33N 51°17' E 004°21'0 0.0
2017-Jan-23 23:33N 51°17' E 004°21'0 0.0
2017-Jan-23 22:33N 51°17' E 004°21'0 0.0
2017-Jan-23 21:33N 51°17' E 004°21'0 0.0
2017-Jan-23 20:33N 51°17' E 004°21'0 0.0
2017-Jan-23 19:33N 51°17' E 004°21'0 0.0
2017-Jan-23 18:33N 51°17' E 004°21'0 0.0
2017-Jan-23 17:33N 51°17' E 004°21'0 0.0
2017-Jan-23 16:33N 51°17' E 004°21'0 0.0
2017-Jan-23 15:33N 51°17' E 004°21'0 0.0
2017-Jan-23 14:33N 51°17' E 004°21'0 0.0
2017-Jan-23 13:33N 51°17' E 004°21'0 0.0
2017-Jan-23 12:33N 51°17' E 004°21'0 0.0
2017-Jan-23 11:33N 51°17' E 004°21'0 0.4
2017-Jan-23 10:33N 51°17' E 004°20'4 4.0
2017-Jan-23 09:34N 51°21' E 004°17'0 0.0
2017-Jan-23 08:33N 51°21' E 004°17'7 6.6
2017-Jan-23 07:33N 51°22' E 004°07'7 6.9
2017-Jan-23 06:33N 51°22' E 003°56'9 8.6
2017-Jan-23 05:34N 51°24' E 003°42'9 8.6
2017-Jan-23 04:33N 51°25' E 003°29'9 8.6
2017-Jan-23 03:34N 51°25' E 003°15'8 8.1
2017-Jan-23 02:33N 51°25' E 003°02'9 8.9
2017-Jan-23 01:34N 51°25' E 002°47'10 9.8
2017-Jan-23 00:33N 51°22' E 002°33'1010.1
2017-Jan-22 23:33N 51°18' E 002°18'1110.7
2017-Jan-22 22:33N 51°12' E 002°03'1110.8
2017-Jan-22 21:33N 51°07' E 001°49'1111.1
2017-Jan-22 20:33N 50°58' E 001°37'4210.3
2017-Jan-22 16:32N 50°27' E 000°54'1010.4
2017-Jan-22 15:32N 50°24' E 000°38'1110.3
2017-Jan-22 14:30N 50°21' E 000°22'1010.0
2017-Jan-22 13:32N 50°18' E 000°08'10 9.6
2017-Jan-22 12:32N 50°16' W 000°07'9 9.2
2017-Jan-22 11:34N 50°14' W 000°20'9 8.9
2017-Jan-22 10:33N 50°11' W 000°34'9 8.6
2017-Jan-22 09:33N 50°09' W 000°47'9 8.5
2017-Jan-22 08:33N 50°07' W 000°60'9 8.9
2017-Jan-22 07:33N 50°05' W 001°13'9 9.5
2017-Jan-22 06:33N 50°02' W 001°27'1010.2
2017-Jan-22 05:33N 50°00' W 001°43'1110.7
2017-Jan-22 04:33N 49°57' W 001°59'13510.1
2017-Jan-21 15:06N 48°57' W 005°06'5 9.3
2017-Jan-21 14:32N 48°54' W 005°13'10 9.4
2017-Jan-21 13:30N 48°49' W 005°25'  
2017-Jan-15 20:34N 39°16' W 009°49'7 7.0
2017-Jan-15 19:33N 39°09' W 009°49'8 7.7
2017-Jan-15 18:34N 39°02' W 009°49'8 7.8
2017-Jan-15 17:33N 38°54' W 009°50'8 8.0
2017-Jan-15 16:33N 38°46' W 009°50'8 7.8
2017-Jan-15 15:33N 38°38' W 009°50'8 8.2
2017-Jan-15 14:33N 38°30' W 009°47'8 8.1
2017-Jan-15 13:34N 38°22' W 009°44'8 8.3
2017-Jan-15 12:33N 38°14' W 009°42'9 8.6
2017-Jan-15 11:34N 38°06' W 009°40'8 8.2
2017-Jan-15 10:34N 37°58' W 009°37'8 8.2
2017-Jan-15 09:32N 37°50' W 009°35'9 8.3
2017-Jan-15 08:30N 37°41' W 009°32'7 7.9
2017-Jan-15 07:34N 37°34' W 009°30'  
Track history (hours):
 
Tides and Currents Weather Stations Pressure Air Temp Water Temp Dewpoint Dewpoint Depression Visibility Wind Speed Wind Dir Waves Ship Positions

Dan Fighter

Last reported at 2017-Jan-24 20:33 UTC. Time now 2017-Jan-24 21:32 UTC.
Position N 51°25' E 004°02'.

Length 64 m; draft 3.1 m.

Type: Cargo ship. MMSI: 220386978.

Date/timePositionNaut miles runAvg speedWind from/ knotsBaromVisibWave heightAir tempDewpointWater temp
2017-Jan-24 20:33N 51°25' E 004°02'6 5.8
2017-Jan-24 19:33N 51°24' E 004°11'5 5.0
2017-Jan-24 18:34N 51°21' E 004°17'2 1.7
2017-Jan-24 17:33N 51°19' E 004°19'3 2.6
2017-Jan-24 16:33N 51°17' E 004°21'0 0.0
2017-Jan-24 15:33N 51°17' E 004°21'0 0.0
2017-Jan-24 14:33N 51°17' E 004°21'0 0.0
2017-Jan-24 13:33N 51°17' E 004°21'0 0.0
2017-Jan-24 12:33N 51°17' E 004°21'0 0.0
2017-Jan-24 11:33N 51°17' E 004°21'0 0.0
2017-Jan-24 10:33N 51°17' E 004°21'0 0.0
2017-Jan-24 09:33N 51°17' E 004°21'0 0.0
2017-Jan-24 08:33N 51°17' E 004°21'0 0.0
2017-Jan-24 07:33N 51°17' E 004°21'0 0.0
2017-Jan-24 06:33N 51°17' E 004°21'0 0.0
2017-Jan-24 05:33N 51°17' E 004°21'0 0.0
2017-Jan-24 04:33N 51°17' E 004°21'0 0.0
2017-Jan-24 03:33N 51°17' E 004°21'0 0.0
2017-Jan-24 02:33N 51°17' E 004°21'0 0.0
2017-Jan-24 01:33N 51°17' E 004°21'0 0.0
2017-Jan-24 00:33N 51°17' E 004°21'0 0.0
2017-Jan-23 23:33N 51°17' E 004°21'0 0.0
2017-Jan-23 22:33N 51°17' E 004°21'0 0.0
2017-Jan-23 21:33N 51°17' E 004°21'0 0.0
2017-Jan-23 20:33N 51°17' E 004°21'0 0.0
2017-Jan-23 19:33N 51°17' E 004°21'0 0.0
2017-Jan-23 18:33N 51°17' E 004°21'0 0.0
2017-Jan-23 17:33N 51°17' E 004°21'0 0.0
2017-Jan-23 16:33N 51°17' E 004°21'0 0.0
2017-Jan-23 15:33N 51°17' E 004°21'0 0.0
2017-Jan-23 14:33N 51°17' E 004°21'0 0.0
2017-Jan-23 13:33N 51°17' E 004°21'0 0.0
2017-Jan-23 12:33N 51°17' E 004°21'0 0.0
2017-Jan-23 11:33N 51°17' E 004°21'0 0.4
2017-Jan-23 10:33N 51°17' E 004°20'4 4.0
2017-Jan-23 09:34N 51°21' E 004°17'0 0.0
2017-Jan-23 08:33N 51°21' E 004°17'7 6.6
2017-Jan-23 07:33N 51°22' E 004°07'7 6.9
2017-Jan-23 06:33N 51°22' E 003°56'9 8.6
2017-Jan-23 05:34N 51°24' E 003°42'9 8.6
2017-Jan-23 04:33N 51°25' E 003°29'9 8.6
2017-Jan-23 03:34N 51°25' E 003°15'8 8.1
2017-Jan-23 02:33N 51°25' E 003°02'9 8.9
2017-Jan-23 01:34N 51°25' E 002°47'10 9.8
2017-Jan-23 00:33N 51°22' E 002°33'1010.1
2017-Jan-22 23:33N 51°18' E 002°18'1110.7
2017-Jan-22 22:33N 51°12' E 002°03'1110.8
2017-Jan-22 21:33N 51°07' E 001°49'1111.1
2017-Jan-22 20:33N 50°58' E 001°37'4210.3
2017-Jan-22 16:32N 50°27' E 000°54'1010.4
2017-Jan-22 15:32N 50°24' E 000°38'1110.3
2017-Jan-22 14:30N 50°21' E 000°22'1010.0
2017-Jan-22 13:32N 50°18' E 000°08'10 9.6
2017-Jan-22 12:32N 50°16' W 000°07'9 9.2
2017-Jan-22 11:34N 50°14' W 000°20'9 8.9
2017-Jan-22 10:33N 50°11' W 000°34'9 8.6
2017-Jan-22 09:33N 50°09' W 000°47'9 8.5
2017-Jan-22 08:33N 50°07' W 000°60'9 8.9
2017-Jan-22 07:33N 50°05' W 001°13'9 9.5
2017-Jan-22 06:33N 50°02' W 001°27'1010.2
2017-Jan-22 05:33N 50°00' W 001°43'1110.7
2017-Jan-22 04:33N 49°57' W 001°59'13510.1
2017-Jan-21 15:06N 48°57' W 005°06'5 9.3
2017-Jan-21 14:32N 48°54' W 005°13'10 9.4
2017-Jan-21 13:30N 48°49' W 005°25'  
2017-Jan-15 20:34N 39°16' W 009°49'7 7.0
2017-Jan-15 19:33N 39°09' W 009°49'8 7.7
2017-Jan-15 18:34N 39°02' W 009°49'8 7.8
2017-Jan-15 17:33N 38°54' W 009°50'8 8.0
2017-Jan-15 16:33N 38°46' W 009°50'8 7.8
2017-Jan-15 15:33N 38°38' W 009°50'8 8.2
2017-Jan-15 14:33N 38°30' W 009°47'8 8.1
2017-Jan-15 13:34N 38°22' W 009°44'8 8.3
2017-Jan-15 12:33N 38°14' W 009°42'9 8.6
2017-Jan-15 11:34N 38°06' W 009°40'8 8.2
2017-Jan-15 10:34N 37°58' W 009°37'8 8.2
2017-Jan-15 09:32N 37°50' W 009°35'9 8.3
2017-Jan-15 08:30N 37°41' W 009°32'7 7.9
2017-Jan-15 07:34N 37°34' W 009°30'  

Dump ship's entire track history